L'Olleria, Spain
Current Conditions -  °F | °C
As of 11:00 AM on Saturday 29 Nov 2014 (Local Time) from LEVC Reporting Station
Broken Clouds Broken Clouds  
Wind Chill: 66°   Ceiling: 6000
Heat Index: 66°   Visibility: 6mi
Dew Point: 61°   Wind: 14mph
Humidity: 83%   Direction: 110°ESE
Pressure: 29.29"   Gusts: NA
Location:  38.92°N, 0.55°W
Report Text: LEVC 291000Z 11012KT 080V140 9000 SCT020 SCT045 BKN060 19/16 Q0992 NOSIG
Loading
Personal Weather Stations






























Interactive Weather Map New forecast layout! Learn more

10-Day Weather Forecast

Advertisements
Track Severe Weather on mobile